createdAt,value
2023-04-18T00:01:25.995Z,38.40
2023-04-18T00:03:53.774Z,37.59
2023-04-18T00:06:22.330Z,38.12
2023-04-18T00:08:49.425Z,38.40
2023-04-18T00:11:16.474Z,38.05
2023-04-18T00:13:44.509Z,38.35
2023-04-18T00:16:13.381Z,38.67
2023-04-18T00:18:40.769Z,38.52
2023-04-18T00:21:08.809Z,39.01
2023-04-18T00:23:36.196Z,38.83
2023-04-18T00:26:03.526Z,38.72
2023-04-18T00:28:30.450Z,39.31
2023-04-18T00:30:57.498Z,38.91
2023-04-18T00:33:24.462Z,39.20
2023-04-18T00:35:52.665Z,39.27
2023-04-18T00:38:19.535Z,39.23
2023-04-18T00:40:48.433Z,38.96
2023-04-18T00:43:17.023Z,39.50
2023-04-18T00:45:44.733Z,39.82
2023-04-18T00:48:11.966Z,39.44
2023-04-18T00:50:40.708Z,39.33
2023-04-18T00:53:10.621Z,39.50
2023-04-18T00:55:38.680Z,39.32
2023-04-18T00:58:06.454Z,39.78
2023-04-18T01:00:33.407Z,39.71
2023-04-18T01:03:01.083Z,39.98
2023-04-18T01:05:28.334Z,40.42
2023-04-18T01:08:01.132Z,40.13
2023-04-18T01:10:29.275Z,40.22
2023-04-18T01:13:12.480Z,41.16
2023-04-18T01:15:44.261Z,40.37
2023-04-18T01:18:13.325Z,40.13
2023-04-18T01:20:43.815Z,40.05
2023-04-18T01:23:10.859Z,40.21
2023-04-18T01:25:39.115Z,40.63
2023-04-18T01:28:06.648Z,40.17
2023-04-18T01:30:34.755Z,40.15
2023-04-18T01:33:03.136Z,40.31
2023-04-18T01:35:30.705Z,40.46
2023-04-18T01:37:57.740Z,40.54
2023-04-18T01:40:24.885Z,40.23
2023-04-18T01:42:53.502Z,40.51
2023-04-18T01:45:20.714Z,40.97
2023-04-18T01:47:47.703Z,40.80
2023-04-18T01:50:14.818Z,40.71
2023-04-18T01:52:43.207Z,41.00
2023-04-18T01:55:10.487Z,41.05
2023-04-18T01:57:37.438Z,41.20
2023-04-18T02:00:06.669Z,41.44
2023-04-18T02:02:43.146Z,40.90
2023-04-18T02:05:10.929Z,41.27
2023-04-18T02:07:41.151Z,41.09
2023-04-18T02:10:10.548Z,41.53
2023-04-18T02:12:37.697Z,41.36
2023-04-18T02:15:05.355Z,41.79
2023-04-18T02:17:36.394Z,41.60
2023-04-18T02:20:04.027Z,41.31
2023-04-18T02:22:32.073Z,41.74
2023-04-18T02:25:00.817Z,41.17
2023-04-18T02:27:28.010Z,41.33
2023-04-18T02:29:57.307Z,41.45
2023-04-18T02:32:24.898Z,41.61
2023-04-18T02:34:51.889Z,41.29
2023-04-18T02:37:19.081Z,41.72
2023-04-18T02:39:46.049Z,41.81
2023-04-18T02:42:12.922Z,42.08
2023-04-18T02:44:39.875Z,42.04
2023-04-18T02:47:07.095Z,41.73
2023-04-18T02:49:36.716Z,42.10
2023-04-18T02:52:03.942Z,41.92
2023-04-18T02:54:31.096Z,42.77
2023-04-18T02:57:06.260Z,42.03
2023-04-18T02:59:57.723Z,41.97
2023-04-18T03:02:51.253Z,42.68
2023-04-18T03:05:32.197Z,42.47
2023-04-18T03:08:02.271Z,42.47
2023-04-18T03:10:29.835Z,42.23
2023-04-18T03:12:56.800Z,42.24
2023-04-18T03:15:23.965Z,42.91
2023-04-18T03:17:51.387Z,42.93
2023-04-18T03:20:20.976Z,42.87
2023-04-18T03:22:48.031Z,42.91
2023-04-18T03:25:18.919Z,42.88
2023-04-18T03:27:51.393Z,43.04
2023-04-18T03:30:20.814Z,42.71
2023-04-18T03:32:56.325Z,42.75
2023-04-18T03:35:23.673Z,43.04
2023-04-18T03:37:50.978Z,42.73
2023-04-18T03:40:25.161Z,42.52
2023-04-18T03:42:55.053Z,42.70
2023-04-18T03:45:22.034Z,42.34
2023-04-18T03:47:50.017Z,42.67
2023-04-18T03:50:17.684Z,42.74
2023-04-18T03:52:46.277Z,42.53
2023-04-18T03:55:15.792Z,42.81
2023-04-18T03:57:42.875Z,42.83
2023-04-18T04:00:15.819Z,42.74
2023-04-18T04:02:42.910Z,42.09
2023-04-18T04:05:15.763Z,42.84
2023-04-18T04:07:43.377Z,42.96
2023-04-18T04:10:10.972Z,42.86
2023-04-18T04:12:37.919Z,42.58
2023-04-18T04:15:05.605Z,42.58
2023-04-18T04:17:33.242Z,42.45
2023-04-18T04:20:00.244Z,42.70
2023-04-18T04:22:28.484Z,42.48
2023-04-18T04:24:57.862Z,42.58
2023-04-18T04:27:31.244Z,42.93
2023-04-18T04:29:58.196Z,42.74
2023-04-18T04:32:25.549Z,42.32
2023-04-18T04:34:53.712Z,42.15
2023-04-18T04:37:21.209Z,42.25
2023-04-18T04:40:00.716Z,42.50
2023-04-18T04:42:41.239Z,42.37
2023-04-18T04:45:15.386Z,42.29
2023-04-18T04:47:42.355Z,41.90
2023-04-18T04:50:14.841Z,42.77
2023-04-18T04:52:42.838Z,42.26
2023-04-18T04:55:10.163Z,42.43
2023-04-18T04:57:38.011Z,42.31
2023-04-18T05:00:21.043Z,42.24
2023-04-18T05:02:49.460Z,42.26
2023-04-18T05:05:16.727Z,42.34
2023-04-18T05:07:43.680Z,42.37
2023-04-18T05:10:11.026Z,41.76
2023-04-18T05:12:38.000Z,42.06
2023-04-18T05:15:05.567Z,41.95
2023-04-18T05:17:32.659Z,41.47
2023-04-18T05:19:59.586Z,41.52
2023-04-18T05:22:26.748Z,41.38
2023-04-18T05:24:53.772Z,41.62
2023-04-18T05:27:21.815Z,41.57
2023-04-18T05:29:50.344Z,41.65
2023-04-18T05:32:17.510Z,41.43
2023-04-18T05:34:44.557Z,41.42
2023-04-18T05:37:11.658Z,41.47
2023-04-18T05:39:38.834Z,41.21
2023-04-18T05:42:05.961Z,41.33
2023-04-18T05:44:33.094Z,41.23
2023-04-18T05:47:00.098Z,41.42
2023-04-18T05:49:27.081Z,41.29
2023-04-18T05:51:54.020Z,41.37
2023-04-18T05:54:25.234Z,40.98
2023-04-18T05:56:52.352Z,41.25
2023-04-18T05:59:20.712Z,41.38
2023-04-18T06:01:47.775Z,41.18
2023-04-18T06:04:16.581Z,40.71
2023-04-18T06:06:43.816Z,40.80
2023-04-18T06:09:11.294Z,40.79
2023-04-18T06:11:38.614Z,40.66
2023-04-18T06:14:05.738Z,40.38
2023-04-18T06:16:32.844Z,40.16
2023-04-18T06:19:01.344Z,40.13
2023-04-18T06:21:28.533Z,39.91
2023-04-18T06:23:55.739Z,39.55
2023-04-18T06:26:22.769Z,39.54
2023-04-18T06:28:49.809Z,39.60
2023-04-18T06:31:16.945Z,39.45
2023-04-18T06:33:44.081Z,38.94
2023-04-18T06:36:11.118Z,38.83
2023-04-18T06:38:38.166Z,38.80
2023-04-18T06:41:05.236Z,38.83
2023-04-18T06:43:32.229Z,38.43
2023-04-18T06:45:59.710Z,38.46
2023-04-18T06:48:26.756Z,38.50
2023-04-18T06:50:53.744Z,38.30
2023-04-18T06:53:21.106Z,38.08
2023-04-18T06:55:48.353Z,37.70
2023-04-18T06:58:16.926Z,37.25
2023-04-18T07:00:44.053Z,37.48
2023-04-18T07:03:13.689Z,37.11
2023-04-18T07:05:41.333Z,37.17
2023-04-18T07:08:14.082Z,36.82
2023-04-18T07:10:41.477Z,36.98
2023-04-18T07:13:08.646Z,36.90
2023-04-18T07:15:36.296Z,36.82
2023-04-18T07:18:03.709Z,36.25
2023-04-18T07:20:31.395Z,36.17
2023-04-18T07:22:58.405Z,36.36
2023-04-18T07:25:25.755Z,36.10
2023-04-18T07:27:52.853Z,35.57
2023-04-18T07:30:19.926Z,35.98
2023-04-18T07:32:56.049Z,35.71
2023-04-18T07:35:26.034Z,35.64
2023-04-18T07:37:54.243Z,35.86
2023-04-18T07:40:21.774Z,35.71
2023-04-18T07:42:48.906Z,35.56
2023-04-18T07:45:16.229Z,35.07
2023-04-18T07:47:43.366Z,35.27
2023-04-18T07:50:10.865Z,34.83
2023-04-18T07:52:39.314Z,35.26
2023-04-18T07:55:07.169Z,34.78
2023-04-18T07:57:34.405Z,34.84
2023-04-18T08:00:01.421Z,35.12
2023-04-18T08:02:39.930Z,34.93
2023-04-18T08:05:12.670Z,35.10
2023-04-18T08:07:39.759Z,34.71
2023-04-18T08:10:09.754Z,34.81
2023-04-18T08:12:36.896Z,34.43
2023-04-18T08:15:04.632Z,34.52
2023-04-18T08:17:33.369Z,34.30
2023-04-18T08:20:05.164Z,34.66
2023-04-18T08:22:32.162Z,34.45
2023-04-18T08:25:04.980Z,34.56
2023-04-18T08:27:32.750Z,35.16
2023-04-18T08:30:00.817Z,35.25
2023-04-18T08:32:27.973Z,35.45
2023-04-18T08:34:58.370Z,35.56
2023-04-18T08:37:25.620Z,35.72
2023-04-18T08:39:52.669Z,35.55
2023-04-18T08:42:19.927Z,35.59
2023-04-18T08:44:47.334Z,35.54
2023-04-18T08:47:16.192Z,35.49
2023-04-18T08:49:48.438Z,35.67
2023-04-18T08:52:24.139Z,35.38
2023-04-18T08:54:51.205Z,35.58
2023-04-18T08:57:27.443Z,35.51
2023-04-18T08:59:55.550Z,35.23
2023-04-18T09:02:35.294Z,35.21
2023-04-18T09:05:11.639Z,34.90
2023-04-18T09:07:38.837Z,34.89
2023-04-18T09:10:06.308Z,35.24
2023-04-18T09:12:34.627Z,35.34
2023-04-18T09:15:15.635Z,35.45
2023-04-18T09:17:51.064Z,35.55
2023-04-18T09:20:42.429Z,35.93
2023-04-18T09:23:11.721Z,35.46
2023-04-18T09:25:45.130Z,36.33
2023-04-18T09:28:30.724Z,36.37
2023-04-18T09:31:09.476Z,36.16
2023-04-18T09:33:37.157Z,36.50
2023-04-18T09:36:24.799Z,36.77
2023-04-18T09:38:56.311Z,36.33
2023-04-18T09:41:24.443Z,36.45
2023-04-18T09:44:12.372Z,37.11
2023-04-18T09:46:41.493Z,36.69
2023-04-18T09:49:10.421Z,36.85
2023-04-18T09:51:40.407Z,37.19
2023-04-18T09:54:09.731Z,37.21
2023-04-18T09:56:39.312Z,37.15
2023-04-18T09:59:10.623Z,37.14
2023-04-18T10:01:40.186Z,36.86
2023-04-18T10:04:08.238Z,37.04
2023-04-18T10:06:42.102Z,36.88
2023-04-18T10:09:10.334Z,37.15
2023-04-18T10:11:37.592Z,37.17
2023-04-18T10:14:12.904Z,37.36
2023-04-18T10:16:41.396Z,36.96
2023-04-18T10:19:26.197Z,37.40
2023-04-18T10:21:57.121Z,37.19
2023-04-18T10:24:59.515Z,37.19
2023-04-18T10:27:48.769Z,37.49
2023-04-18T10:30:16.943Z,36.89
2023-04-18T10:32:45.973Z,37.03
2023-04-18T10:35:13.239Z,37.26
2023-04-18T10:37:52.702Z,37.64
2023-04-18T10:40:46.018Z,37.66
2023-04-18T10:43:13.503Z,37.42
2023-04-18T10:45:43.493Z,37.12
2023-04-18T10:48:32.919Z,38.09
2023-04-18T10:51:20.734Z,37.34
2023-04-18T10:53:54.278Z,36.96
2023-04-18T10:56:24.424Z,37.01
2023-04-18T10:58:55.622Z,36.96
2023-04-18T11:01:32.464Z,36.78
2023-04-18T11:04:00.776Z,36.71
2023-04-18T11:06:28.626Z,36.90
2023-04-18T11:09:13.860Z,36.39
2023-04-18T11:11:41.878Z,36.59
2023-04-18T11:14:08.836Z,36.62
2023-04-18T11:16:36.149Z,36.68
2023-04-18T11:19:25.843Z,36.31
2023-04-18T11:21:53.067Z,36.49
2023-04-18T11:24:24.333Z,36.40
2023-04-18T11:26:56.180Z,36.96
2023-04-18T11:29:23.855Z,36.18
2023-04-18T11:31:55.287Z,35.97
2023-04-18T11:34:30.545Z,35.29
2023-04-18T11:36:59.627Z,35.54
2023-04-18T11:39:29.293Z,35.65
2023-04-18T11:41:57.718Z,35.17
2023-04-18T11:44:25.333Z,35.55
2023-04-18T11:46:55.917Z,35.06
2023-04-18T11:49:31.817Z,34.98
2023-04-18T11:52:00.050Z,35.24
2023-04-18T11:54:44.510Z,35.20
2023-04-18T11:57:26.655Z,35.33
2023-04-18T11:59:55.009Z,35.16
2023-04-18T12:02:26.772Z,35.15
2023-04-18T12:04:59.200Z,35.01
2023-04-18T12:07:37.245Z,35.00
2023-04-18T12:10:10.187Z,34.91
2023-04-18T12:12:37.190Z,34.80
2023-04-18T12:15:08.498Z,35.04
2023-04-18T12:17:37.551Z,34.84
2023-04-18T12:20:09.713Z,35.28
2023-04-18T12:22:42.074Z,35.12
2023-04-18T12:25:26.203Z,34.81
2023-04-18T12:27:58.369Z,34.85
2023-04-18T12:30:31.230Z,34.61
2023-04-18T12:33:04.118Z,34.34
2023-04-18T12:35:31.988Z,34.35
2023-04-18T12:38:01.538Z,34.22
2023-04-18T12:40:30.639Z,33.95
2023-04-18T12:42:57.658Z,33.82
2023-04-18T12:45:25.013Z,33.10
2023-04-18T12:47:52.834Z,32.39
2023-04-18T12:50:25.136Z,31.98
2023-04-18T12:52:54.248Z,31.70
2023-04-18T12:55:22.953Z,31.04
2023-04-18T12:57:52.433Z,30.63
2023-04-18T13:00:19.494Z,30.37
2023-04-18T13:02:46.597Z,29.38
2023-04-18T13:05:15.415Z,28.47
2023-04-18T13:07:43.392Z,28.35
2023-04-18T13:10:12.958Z,28.31
2023-04-18T13:12:41.262Z,28.45
2023-04-18T13:15:11.961Z,28.59
2023-04-18T13:17:39.939Z,29.43
2023-04-18T13:20:10.863Z,29.96
2023-04-18T13:22:38.861Z,30.31
2023-04-18T13:25:08.270Z,30.61
2023-04-18T13:27:35.221Z,30.79
2023-04-18T13:30:02.656Z,30.96
2023-04-18T13:32:30.549Z,31.38
2023-04-18T13:34:57.619Z,31.67
2023-04-18T13:37:24.645Z,31.94
2023-04-18T13:39:51.683Z,32.27
2023-04-18T13:42:19.512Z,32.17
2023-04-18T13:44:47.649Z,32.38
2023-04-18T13:47:14.696Z,32.55
2023-04-18T13:49:41.856Z,32.22
2023-04-18T13:52:09.226Z,32.65
2023-04-18T13:54:37.715Z,32.78
2023-04-18T13:57:11.705Z,32.85
2023-04-18T13:59:42.614Z,32.92
2023-04-18T14:02:10.194Z,32.91
2023-04-18T14:04:38.159Z,32.99
2023-04-18T14:07:06.426Z,33.33
2023-04-18T14:09:33.730Z,33.28
2023-04-18T14:12:00.679Z,33.42
2023-04-18T14:14:29.380Z,33.34
2023-04-18T14:16:56.641Z,33.39
2023-04-18T14:19:24.077Z,33.32
2023-04-18T14:21:51.131Z,33.27
2023-04-18T14:24:18.218Z,33.67
2023-04-18T14:26:45.284Z,33.51
2023-04-18T14:29:12.630Z,33.40
2023-04-18T14:31:39.994Z,33.70
2023-04-18T14:34:08.521Z,33.31
2023-04-18T14:36:36.025Z,33.55
2023-04-18T14:39:03.629Z,33.78
2023-04-18T14:41:30.576Z,33.73
2023-04-18T14:43:57.653Z,33.59
2023-04-18T14:46:24.660Z,33.95
2023-04-18T14:48:51.586Z,34.24
2023-04-18T14:51:21.434Z,33.92
2023-04-18T14:53:49.570Z,34.04
2023-04-18T14:56:21.025Z,34.29
2023-04-18T14:58:48.332Z,34.05
2023-04-18T15:01:15.712Z,34.30
2023-04-18T15:03:42.880Z,34.34
2023-04-18T15:06:10.025Z,34.70
2023-04-18T15:08:37.205Z,34.53
2023-04-18T15:11:08.277Z,34.92
2023-04-18T15:13:35.802Z,34.84
2023-04-18T15:16:03.556Z,34.71
2023-04-18T15:18:30.806Z,34.92
2023-04-18T15:20:59.975Z,35.14
2023-04-18T15:23:27.675Z,35.31
2023-04-18T15:25:54.856Z,35.29
2023-04-18T15:28:21.982Z,35.21
2023-04-18T15:30:48.923Z,35.26
2023-04-18T15:33:17.538Z,35.43
2023-04-18T15:35:45.236Z,35.56
2023-04-18T15:38:12.320Z,35.58
2023-04-18T15:40:39.420Z,35.70
2023-04-18T15:43:06.590Z,35.96
2023-04-18T15:45:33.610Z,35.77
2023-04-18T15:48:00.737Z,36.05
2023-04-18T15:50:27.885Z,35.95
2023-04-18T15:52:56.455Z,36.10
2023-04-18T15:55:24.708Z,35.98
2023-04-18T15:57:51.794Z,36.13
2023-04-18T16:00:19.843Z,36.22
2023-04-18T16:02:47.397Z,36.45
2023-04-18T16:05:15.487Z,36.55
2023-04-18T16:07:42.831Z,36.65
2023-04-18T16:10:11.293Z,36.63
2023-04-18T16:12:39.757Z,36.70
2023-04-18T16:15:08.765Z,36.75
2023-04-18T16:17:37.751Z,36.91
2023-04-18T16:20:09.696Z,37.02
2023-04-18T16:22:37.924Z,37.15
2023-04-18T16:25:06.681Z,37.08
2023-04-18T16:27:33.684Z,37.41
2023-04-18T16:30:01.268Z,37.33
2023-04-18T16:32:30.645Z,36.98
2023-04-18T16:34:57.977Z,37.35
2023-04-18T16:37:24.968Z,37.29
2023-04-18T16:39:51.894Z,37.55
2023-04-18T16:42:19.071Z,37.57
2023-04-18T16:44:47.409Z,37.44
2023-04-18T16:47:14.454Z,37.68
2023-04-18T16:49:41.754Z,37.56
2023-04-18T16:52:08.686Z,37.75
2023-04-18T16:54:36.464Z,37.70
2023-04-18T16:57:05.445Z,37.68
2023-04-18T16:59:32.555Z,37.46
2023-04-18T17:01:59.868Z,37.59
2023-04-18T17:04:27.400Z,37.89
2023-04-18T17:06:54.736Z,37.95
2023-04-18T17:09:21.958Z,38.01
2023-04-18T17:11:49.317Z,38.13
2023-04-18T17:14:17.558Z,38.13
2023-04-18T17:16:44.904Z,38.73
2023-04-18T17:19:12.295Z,38.54
2023-04-18T17:21:39.419Z,38.77
2023-04-18T17:24:07.206Z,38.81
2023-04-18T17:26:35.854Z,38.69
2023-04-18T17:29:06.457Z,38.81
2023-04-18T17:31:34.411Z,38.83
2023-04-18T17:34:01.659Z,38.93
2023-04-18T17:36:28.765Z,39.21
2023-04-18T17:38:56.481Z,38.96
2023-04-18T17:41:23.438Z,39.25
2023-04-18T17:43:53.484Z,39.26
2023-04-18T17:46:21.189Z,38.76
2023-04-18T17:48:49.466Z,38.95
2023-04-18T17:51:16.651Z,39.36
2023-04-18T17:53:43.760Z,39.22
2023-04-18T17:56:10.941Z,39.07
2023-04-18T17:58:37.947Z,39.51
2023-04-18T18:01:17.403Z,39.47
2023-04-18T18:03:45.109Z,39.19
2023-04-18T18:06:13.385Z,39.25
2023-04-18T18:08:42.703Z,39.27
2023-04-18T18:11:10.950Z,39.20
2023-04-18T18:13:39.305Z,39.52
2023-04-18T18:16:07.435Z,39.41
2023-04-18T18:18:34.919Z,39.60
2023-04-18T18:21:02.111Z,39.73
2023-04-18T18:23:29.346Z,39.53
2023-04-18T18:25:57.079Z,39.42
2023-04-18T18:28:24.211Z,39.59
2023-04-18T18:30:51.301Z,39.35
2023-04-18T18:33:19.115Z,39.47
2023-04-18T18:35:47.211Z,39.33
2023-04-18T18:38:14.411Z,39.51
2023-04-18T18:40:41.690Z,39.60
2023-04-18T18:43:09.012Z,39.49
2023-04-18T18:45:36.020Z,39.38
2023-04-18T18:48:04.677Z,39.48
2023-04-18T18:50:32.066Z,39.62
2023-04-18T18:53:01.910Z,39.49
2023-04-18T18:55:30.047Z,39.61
2023-04-18T18:57:57.175Z,39.35
2023-04-18T19:00:24.903Z,39.07
2023-04-18T19:02:52.283Z,39.46
2023-04-18T19:05:19.636Z,39.54
2023-04-18T19:07:46.786Z,39.57
2023-04-18T19:10:13.929Z,39.58
2023-04-18T19:12:40.903Z,39.52
2023-04-18T19:15:08.546Z,39.69
2023-04-18T19:17:35.988Z,39.19
2023-04-18T19:20:03.450Z,39.36
2023-04-18T19:22:31.257Z,39.08
2023-04-18T19:25:00.484Z,39.53
2023-04-18T19:27:27.465Z,39.22
2023-04-18T19:29:54.414Z,39.10
2023-04-18T19:32:21.993Z,39.32
2023-04-18T19:34:49.096Z,39.37
2023-04-18T19:37:16.292Z,38.51
2023-04-18T19:39:43.310Z,38.63
2023-04-18T19:42:10.472Z,38.97
2023-04-18T19:44:37.436Z,38.49
2023-04-18T19:47:04.680Z,38.58
2023-04-18T19:49:31.688Z,38.25
2023-04-18T19:51:58.796Z,38.77
2023-04-18T19:54:26.016Z,38.75
2023-04-18T19:56:53.040Z,38.86
2023-04-18T19:59:20.042Z,38.61
2023-04-18T20:01:47.698Z,38.62
2023-04-18T20:04:14.903Z,38.42
2023-04-18T20:06:42.773Z,38.48
2023-04-18T20:09:15.421Z,38.16
2023-04-18T20:11:43.564Z,38.48
2023-04-18T20:14:11.035Z,38.42
2023-04-18T20:16:39.190Z,38.72
2023-04-18T20:19:06.228Z,38.83
2023-04-18T20:21:33.205Z,38.73
2023-04-18T20:24:00.290Z,38.57
2023-04-18T20:26:27.349Z,38.63
2023-04-18T20:28:54.531Z,38.61
2023-04-18T20:31:21.865Z,38.59
2023-04-18T20:33:48.874Z,38.50
2023-04-18T20:36:17.841Z,38.88
2023-04-18T20:38:44.958Z,38.53
2023-04-18T20:41:18.265Z,39.03
2023-04-18T20:43:46.973Z,38.41
2023-04-18T20:46:14.368Z,38.76
2023-04-18T20:48:41.770Z,38.96
2023-04-18T20:51:09.223Z,38.87
2023-04-18T20:53:36.270Z,38.45
2023-04-18T20:56:03.314Z,38.53
2023-04-18T20:58:30.402Z,38.54
2023-04-18T21:00:57.729Z,38.94
2023-04-18T21:03:25.269Z,39.18
2023-04-18T21:05:52.858Z,39.05
2023-04-18T21:08:19.950Z,38.39
2023-04-18T21:10:46.950Z,39.06
2023-04-18T21:13:14.160Z,38.53
2023-04-18T21:15:42.350Z,39.08
2023-04-18T21:18:09.541Z,38.47
2023-04-18T21:20:37.025Z,38.72
2023-04-18T21:23:04.072Z,38.75
2023-04-18T21:25:31.371Z,38.57
2023-04-18T21:27:58.690Z,39.07
2023-04-18T21:30:25.962Z,39.16
2023-04-18T21:32:53.080Z,38.74
2023-04-18T21:35:22.019Z,38.73
2023-04-18T21:37:51.371Z,38.81
2023-04-18T21:40:18.493Z,39.01
2023-04-18T21:42:46.186Z,39.40
2023-04-18T21:45:13.888Z,39.09
2023-04-18T21:47:41.102Z,38.94
2023-04-18T21:50:09.461Z,39.22
2023-04-18T21:52:37.534Z,39.00
2023-04-18T21:55:05.147Z,38.56
2023-04-18T21:57:32.349Z,38.69
2023-04-18T21:59:59.329Z,39.02
2023-04-18T22:02:27.274Z,38.56
2023-04-18T22:04:54.681Z,38.71
2023-04-18T22:07:21.631Z,39.02
2023-04-18T22:09:48.839Z,38.57
2023-04-18T22:12:15.953Z,38.69
2023-04-18T22:14:48.367Z,38.97
2023-04-18T22:17:15.577Z,38.56
2023-04-18T22:19:44.582Z,38.74
2023-04-18T22:22:11.779Z,38.55
2023-04-18T22:24:38.775Z,38.74
2023-04-18T22:27:06.003Z,38.95
2023-04-18T22:29:33.245Z,38.59
2023-04-18T22:32:00.336Z,38.78
2023-04-18T22:34:27.362Z,38.82
2023-04-18T22:36:54.544Z,38.61
2023-04-18T22:39:21.522Z,38.65
2023-04-18T22:41:48.463Z,38.95
2023-04-18T22:44:15.764Z,39.18
2023-04-18T22:46:43.158Z,38.88
2023-04-18T22:49:10.259Z,38.91
2023-04-18T22:51:38.342Z,38.49
2023-04-18T22:54:05.593Z,38.64
2023-04-18T22:56:32.555Z,39.10
2023-04-18T22:58:59.802Z,39.04
2023-04-18T23:01:26.834Z,39.06
2023-04-18T23:03:53.919Z,38.66
2023-04-18T23:06:21.139Z,38.61
2023-04-18T23:08:48.226Z,38.48
2023-04-18T23:11:15.918Z,38.59
2023-04-18T23:13:42.924Z,38.98
2023-04-18T23:16:09.865Z,38.59
2023-04-18T23:18:36.936Z,38.78
2023-04-18T23:21:04.199Z,38.70
2023-04-18T23:23:31.292Z,38.82
2023-04-18T23:25:58.388Z,38.82
2023-04-18T23:28:25.680Z,39.04
2023-04-18T23:30:52.819Z,39.26
2023-04-18T23:33:19.818Z,39.13
2023-04-18T23:35:46.695Z,38.92
2023-04-18T23:38:13.650Z,38.74
2023-04-18T23:40:41.039Z,38.66
2023-04-18T23:43:08.129Z,39.03
2023-04-18T23:45:36.082Z,38.46
2023-04-18T23:48:03.340Z,38.60
2023-04-18T23:50:30.505Z,38.68
2023-04-18T23:52:57.633Z,38.87
2023-04-18T23:55:24.846Z,38.52
2023-04-18T23:57:51.927Z,38.10
